Time;durP1;ratioP1;P1;durP2;ratioP2;P2;SDS_P1;SDS_P2;PMS_P1;PMS_P2;Temp;Humidity;BMP_temperature;BMP_pressure;BME280_temperature;BME280_humidity;BME280_pressure;Samples;Min_cycle;Max_cycle;Signal;HPM_P1;HPM_P2
2021/06/09 00:01:09;;;;;;;6.20;5.38;;;18.80;99.90;;;;;;5070288;28;20036;-81
2021/06/09 00:03:35;;;;;;;5.78;5.15;;;18.80;99.90;;;;;;5065557;28;20038;-81
2021/06/09 00:06:01;;;;;;;7.43;5.55;;;18.80;99.90;;;;;;5080585;28;20056;-80
2021/06/09 00:08:26;;;;;;;6.43;5.22;;;18.70;99.90;;;;;;5070063;28;20076;-81
2021/06/09 00:10:56;;;;;;;5.85;5.10;;;18.70;99.90;;;;;;5069028;28;20075;-81
2021/06/09 00:13:28;;;;;;;7.22;5.38;;;18.70;99.90;;;;;;5069408;28;20045;-82
2021/06/09 00:16:15;;;;;;;11.00;5.32;;;18.70;99.90;;;;;;5051309;28;20036;-83
2021/06/09 00:18:42;;;;;;;6.53;4.95;;;18.70;99.90;;;;;;5048856;28;20036;-82
2021/06/09 00:21:09;;;;;;;7.38;5.55;;;18.60;99.90;;;;;;5055175;28;20028;-81
2021/06/09 00:23:36;;;;;;;6.75;5.28;;;18.60;99.90;;;;;;5073560;28;20028;-82
2021/06/09 00:26:04;;;;;;;5.65;4.40;;;18.60;99.90;;;;;;5073958;28;20456;-82
2021/06/09 00:28:30;;;;;;;5.63;5.03;;;18.50;99.90;;;;;;5055199;28;20145;-81
2021/06/09 00:30:57;;;;;;;6.50;4.95;;;18.50;99.90;;;;;;5055227;28;20093;-82
2021/06/09 00:33:28;;;;;;;6.35;5.43;;;18.40;99.90;;;;;;5054472;28;20042;-81
2021/06/09 00:35:56;;;;;;;7.55;4.97;;;18.30;99.90;;;;;;5053880;28;20063;-81
2021/06/09 00:38:24;;;;;;;6.18;4.65;;;18.30;99.90;;;;;;5071561;28;20073;-82
2021/06/09 00:40:51;;;;;;;5.85;4.88;;;18.30;99.90;;;;;;5053284;28;20123;-82
2021/06/09 00:43:22;;;;;;;7.13;5.32;;;18.30;99.90;;;;;;5054924;28;20349;-83
2021/06/09 00:45:56;;;;;;;5.93;5.22;;;18.20;99.90;;;;;;5071540;28;20082;-83
2021/06/09 00:48:28;;;;;;;5.93;4.97;;;18.20;99.90;;;;;;5072507;28;20040;-83
2021/06/09 00:50:56;;;;;;;6.43;4.80;;;18.20;99.90;;;;;;5073032;28;20024;-83
2021/06/09 00:53:28;;;;;;;6.97;5.20;;;18.20;99.90;;;;;;5053907;28;20040;-82
2021/06/09 00:56:12;;;;;;;5.55;4.78;;;18.20;99.90;;;;;;5072831;28;20024;-83
2021/06/09 00:58:40;;;;;;;7.63;5.05;;;18.20;99.90;;;;;;5054565;28;20034;-82
2021/06/09 01:01:07;;;;;;;7.50;5.53;;;18.10;99.90;;;;;;5054804;28;20017;-83
2021/06/09 01:03:35;;;;;;;6.43;4.78;;;18.10;99.90;;;;;;5055607;28;20684;-82
2021/06/09 01:06:04;;;;;;;6.70;5.72;;;18.10;99.90;;;;;;5059115;28;20115;-83
2021/06/09 01:08:34;;;;;;;6.70;5.60;;;18.00;99.90;;;;;;5077291;28;20457;-83
2021/06/09 01:11:00;;;;;;;7.45;5.32;;;18.00;99.90;;;;;;5042773;28;20026;-82
2021/06/09 01:13:29;;;;;;;7.15;5.50;;;18.00;99.90;;;;;;5076336;28;20032;-83
2021/06/09 01:15:55;;;;;;;5.72;4.93;;;18.00;99.90;;;;;;5076565;28;20021;-82
2021/06/09 01:18:22;;;;;;;6.40;5.32;;;17.90;99.90;;;;;;5059008;28;20025;-84
2021/06/09 01:20:48;;;;;;;6.93;5.13;;;17.90;99.90;;;;;;5058610;28;20078;-84
2021/06/09 01:23:14;;;;;;;7.05;5.72;;;17.90;99.90;;;;;;5058145;28;20541;-83
2021/06/09 01:25:41;;;;;;;6.60;5.40;;;17.90;99.90;;;;;;5058276;28;20115;-83
2021/06/09 01:28:10;;;;;;;6.10;5.25;;;18.00;99.90;;;;;;5058306;28;20041;-83
2021/06/09 01:30:40;;;;;;;7.03;5.10;;;17.90;99.90;;;;;;5057933;28;20036;-83
2021/06/09 01:33:08;;;;;;;6.57;5.53;;;17.90;99.90;;;;;;5058489;28;20047;-83
2021/06/09 01:35:35;;;;;;;6.40;5.57;;;17.90;99.90;;;;;;5058029;28;20025;-82
2021/06/09 01:38:01;;;;;;;6.13;5.32;;;17.90;99.90;;;;;;5076477;28;20028;-83
2021/06/09 01:40:27;;;;;;;6.88;5.35;;;17.90;99.90;;;;;;5058404;28;20098;-83
2021/06/09 01:42:54;;;;;;;6.63;5.32;;;17.80;99.90;;;;;;5057744;28;20049;-82
2021/06/09 01:45:23;;;;;;;7.25;5.50;;;17.80;99.90;;;;;;5076079;28;20545;-84
2021/06/09 01:47:50;;;;;;;7.22;5.90;;;17.70;99.90;;;;;;5058341;28;20032;-83
2021/06/09 01:50:17;;;;;;;7.32;6.28;;;17.80;99.90;;;;;;5065873;28;20460;-84
2021/06/09 01:52:46;;;;;;;6.57;5.78;;;17.70;99.90;;;;;;5063666;28;20230;-81
2021/06/09 01:55:15;;;;;;;6.95;5.70;;;17.70;99.90;;;;;;5086788;28;20028;-83
2021/06/09 01:57:41;;;;;;;6.70;5.95;;;17.70;99.90;;;;;;5059238;28;20078;-83
2021/06/09 02:00:24;;;;;;;7.57;5.85;;;17.70;99.90;;;;;;5064698;28;20021;-83
2021/06/09 02:02:57;;;;;;;8.45;5.65;;;17.70;99.90;;;;;;5090252;28;20033;-82
2021/06/09 02:05:23;;;;;;;7.22;5.63;;;17.60;99.90;;;;;;5058343;28;20062;-84
2021/06/09 02:07:48;;;;;;;7.43;6.03;;;17.60;99.90;;;;;;5058304;28;20028;-82
2021/06/09 02:10:18;;;;;;;6.95;5.57;;;17.50;99.90;;;;;;5057733;28;20158;-82
2021/06/09 02:12:47;;;;;;;6.90;5.82;;;17.50;99.90;;;;;;5057496;28;20032;-82
2021/06/09 02:15:15;;;;;;;7.25;6.00;;;17.50;99.90;;;;;;5074545;28;20033;-82
2021/06/09 02:17:46;;;;;;;7.70;5.95;;;17.50;99.90;;;;;;5075453;28;20039;-83
2021/06/09 02:20:13;;;;;;;7.72;6.18;;;17.50;99.90;;;;;;5057813;28;20025;-83
2021/06/09 02:22:39;;;;;;;7.57;6.10;;;17.50;99.90;;;;;;5075204;28;20041;-83
2021/06/09 02:25:07;;;;;;;7.38;6.10;;;17.50;99.90;;;;;;5056946;28;20028;-82
2021/06/09 02:27:34;;;;;;;8.00;6.38;;;17.50;99.90;;;;;;5056121;28;20074;-82
2021/06/09 02:30:00;;;;;;;7.20;5.72;;;17.50;99.90;;;;;;5075198;28;20079;-82
2021/06/09 02:32:26;;;;;;;9.23;6.70;;;17.50;99.90;;;;;;5056842;28;20029;-83
2021/06/09 02:34:52;;;;;;;7.47;6.00;;;17.50;99.90;;;;;;5057494;28;20040;-82
2021/06/09 02:37:21;;;;;;;9.18;6.93;;;17.50;99.90;;;;;;5057227;28;20487;-83
2021/06/09 02:39:47;;;;;;;8.00;6.47;;;17.50;99.90;;;;;;5074974;28;20032;-82
2021/06/09 02:42:20;;;;;;;9.90;6.63;;;17.40;99.90;;;;;;5057190;28;20041;-82
2021/06/09 02:44:47;;;;;;;8.50;6.75;;;17.30;99.90;;;;;;5057181;28;20052;-82
2021/06/09 02:47:15;;;;;;;7.82;5.93;;;17.30;99.90;;;;;;5057105;28;20111;-83
2021/06/09 02:49:43;;;;;;;7.03;5.68;;;17.30;99.90;;;;;;5074533;28;20028;-83
2021/06/09 02:52:21;;;;;;;6.88;5.90;;;17.20;99.90;;;;;;5057243;28;20048;-83
2021/06/09 02:54:57;;;;;;;8.60;6.25;;;17.10;99.90;;;;;;5056720;28;20037;-82
2021/06/09 02:57:30;;;;;;;8.57;6.30;;;17.10;99.90;;;;;;5057386;28;20037;-82
2021/06/09 02:59:56;;;;;;;;;;;17.10;99.90;;;;;;5057227;28;20112;-83
2021/06/09 03:02:36;;;;;;;6.47;5.68;;;17.00;99.90;;;;;;5056780;28;19934;-83
2021/06/09 03:05:26;;;;;;;6.53;5.40;;;16.90;99.90;;;;;;5040550;28;20028;-82
2021/06/09 03:08:05;;;;;;;7.03;6.22;;;16.90;99.90;;;;;;5062676;28;20028;-83
2021/06/09 03:10:52;;;;;;;7.40;6.60;;;16.90;99.90;;;;;;5056783;28;20028;-83
2021/06/09 03:13:28;;;;;;;7.20;6.00;;;16.90;99.90;;;;;;5060946;28;20064;-83
2021/06/09 03:16:03;;;;;;;7.28;6.47;;;16.80;99.90;;;;;;5056259;28;20031;-81
2021/06/09 03:18:38;;;;;;;7.72;6.45;;;16.80;99.90;;;;;;5056568;28;20435;-82
2021/06/09 03:21:12;;;;;;;7.50;6.07;;;16.80;99.90;;;;;;5040788;28;20109;-83
2021/06/09 03:23:50;;;;;;;7.97;6.60;;;16.80;99.90;;;;;;5056158;28;20036;-83
2021/06/09 03:27:07;;;;;;;8.65;6.10;;;16.80;99.90;;;;;;5073630;28;20074;-83
2021/06/09 03:29:46;;;;;;;7.85;6.43;;;16.70;99.90;;;;;;5012303;28;20048;-82
2021/06/09 03:32:43;;;;;;;8.88;6.60;;;16.70;99.90;;;;;;5074596;28;20028;-82
2021/06/09 03:35:45;;;;;;;7.75;6.30;;;16.70;99.90;;;;;;5053733;28;20166;-81
2021/06/09 03:38:16;;;;;;;8.15;6.65;;;16.70;99.90;;;;;;5057948;28;20029;-80
2021/06/09 03:40:44;;;;;;;7.85;6.75;;;16.60;99.90;;;;;;5072490;28;20028;-82
2021/06/09 03:43:13;;;;;;;10.32;6.90;;;16.60;99.90;;;;;;5075011;28;20044;-82
2021/06/09 03:45:45;;;;;;;8.50;6.82;;;16.70;99.90;;;;;;5056825;28;20036;-83
2021/06/09 03:48:14;;;;;;;8.52;7.05;;;16.70;99.90;;;;;;5074611;28;20101;-82
2021/06/09 03:50:41;;;;;;;7.60;6.30;;;16.70;99.90;;;;;;5056033;28;20349;-82
2021/06/09 03:53:07;;;;;;;8.68;7.07;;;16.70;99.90;;;;;;5073807;28;20031;-82
2021/06/09 03:55:38;;;;;;;9.63;7.72;;;16.70;99.90;;;;;;5055727;28;20042;-81
2021/06/09 03:58:09;;;;;;;7.80;6.47;;;16.70;99.90;;;;;;5056069;28;20175;-82
2021/06/09 04:00:37;;;;;;;8.52;7.25;;;16.70;99.90;;;;;;5056175;28;20024;-82
2021/06/09 04:03:05;;;;;;;8.60;6.70;;;16.70;99.90;;;;;;5074377;28;20476;-82
2021/06/09 04:05:35;;;;;;;9.13;7.43;;;16.70;99.90;;;;;;5067090;28;20024;-81
2021/06/09 04:08:01;;;;;;;8.52;7.03;;;16.70;99.90;;;;;;5084291;28;20057;-81
2021/06/09 04:10:30;;;;;;;8.07;7.18;;;16.80;99.90;;;;;;5055544;28;20052;-83
2021/06/09 04:12:57;;;;;;;8.73;7.13;;;16.70;99.90;;;;;;5055795;28;20368;-82
2021/06/09 04:15:25;;;;;;;8.90;6.95;;;16.70;99.90;;;;;;5055292;28;20036;-82
2021/06/09 04:17:53;;;;;;;9.68;6.85;;;16.80;99.90;;;;;;5055462;28;20031;-82
2021/06/09 04:20:28;;;;;;;8.75;6.88;;;16.80;99.90;;;;;;5055258;28;20536;-82
2021/06/09 04:22:55;;;;;;;8.75;7.00;;;16.80;99.90;;;;;;5073277;28;20052;-83
2021/06/09 04:25:21;;;;;;;8.80;7.15;;;16.80;99.90;;;;;;5055373;28;20059;-82
2021/06/09 04:27:49;;;;;;;8.68;7.13;;;16.90;99.90;;;;;;5055068;28;20070;-82
2021/06/09 04:30:17;;;;;;;9.20;7.55;;;16.90;99.90;;;;;;5055044;28;20478;-82
2021/06/09 04:32:57;;;;;;;8.77;7.30;;;16.90;99.90;;;;;;5054699;28;20040;-82
2021/06/09 04:35:26;;;;;;;9.13;7.25;;;17.00;99.90;;;;;;5067620;28;20072;-81
2021/06/09 04:37:52;;;;;;;8.38;7.07;;;17.10;99.90;;;;;;5051438;28;20136;-82
2021/06/09 04:40:24;;;;;;;8.30;6.88;;;17.10;99.90;;;;;;5065299;28;20738;-82
2021/06/09 04:42:53;;;;;;;8.10;7.28;;;17.20;99.90;;;;;;5052718;28;20360;-83
2021/06/09 04:45:24;;;;;;;8.20;7.03;;;17.20;99.90;;;;;;5070242;28;20108;-82
2021/06/09 04:47:50;;;;;;;10.25;7.13;;;17.30;99.90;;;;;;5052221;28;20048;-83
2021/06/09 04:50:18;;;;;;;8.65;7.25;;;17.40;99.90;;;;;;5070166;28;20013;-83
2021/06/09 04:52:49;;;;;;;8.07;6.88;;;17.40;99.90;;;;;;5069919;28;20032;-83
2021/06/09 04:55:18;;;;;;;9.10;7.57;;;17.50;99.90;;;;;;5070355;28;20091;-84
2021/06/09 04:57:47;;;;;;;10.07;7.72;;;17.60;99.90;;;;;;5070493;28;20086;-83
2021/06/09 05:00:15;;;;;;;10.90;8.07;;;17.70;99.90;;;;;;5069372;28;20087;-83
2021/06/09 05:02:42;;;;;;;11.10;9.10;;;17.70;99.90;;;;;;5070430;28;20102;-82
2021/06/09 05:05:09;;;;;;;11.85;8.90;;;17.80;99.90;;;;;;5051801;28;20033;-82
2021/06/09 05:07:36;;;;;;;8.13;7.05;;;17.90;99.90;;;;;;5069260;28;20047;-83
2021/06/09 05:10:03;;;;;;;9.60;8.43;;;18.00;99.90;;;;;;5052163;28;20036;-83
2021/06/09 05:12:41;;;;;;;11.23;8.88;;;18.10;99.90;;;;;;5069870;28;20029;-84
2021/06/09 05:15:17;;;;;;;10.02;8.07;;;18.20;99.90;;;;;;5042622;28;20028;-83
2021/06/09 05:17:44;;;;;;;11.10;9.60;;;18.20;99.90;;;;;;5052240;28;20587;-82
2021/06/09 05:20:19;;;;;;;12.02;9.27;;;18.30;99.90;;;;;;5052425;28;20028;-83
2021/06/09 05:22:50;;;;;;;11.48;10.10;;;18.30;99.90;;;;;;5051862;28;20435;-82
2021/06/09 05:25:20;;;;;;;12.25;10.27;;;18.40;99.90;;;;;;5071141;28;20048;-83
2021/06/09 05:27:47;;;;;;;12.38;10.38;;;18.50;99.90;;;;;;5088650;28;20074;-82
2021/06/09 05:30:16;;;;;;;12.13;10.80;;;18.50;99.90;;;;;;5068190;28;20056;-83
2021/06/09 05:32:42;;;;;;;12.32;10.30;;;18.60;99.90;;;;;;5051584;28;20029;-83
2021/06/09 05:35:14;;;;;;;11.98;10.68;;;18.70;99.90;;;;;;5069829;28;20041;-83
2021/06/09 05:37:41;;;;;;;13.02;10.95;;;18.80;99.90;;;;;;5070210;28;20533;-83
2021/06/09 05:40:10;;;;;;;12.27;10.60;;;19.00;99.90;;;;;;5052751;28;20024;-84
2021/06/09 05:42:39;;;;;;;13.70;12.02;;;19.00;99.90;;;;;;5056641;28;20020;-83
2021/06/09 05:45:08;;;;;;;13.20;11.80;;;19.10;99.90;;;;;;5062957;28;20097;-83
2021/06/09 05:47:45;;;;;;;15.18;13.45;;;19.20;99.90;;;;;;5052955;28;20415;-84
2021/06/09 05:50:21;;;;;;;15.80;13.73;;;19.30;99.90;;;;;;5059718;28;20029;-84
2021/06/09 05:52:50;;;;;;;16.65;14.73;;;19.40;99.90;;;;;;5074273;28;20722;-83
2021/06/09 05:55:18;;;;;;;17.45;15.52;;;19.50;99.90;;;;;;5065484;28;20040;-83
2021/06/09 05:57:48;;;;;;;16.05;14.35;;;19.60;99.90;;;;;;5075370;28;20158;-84
2021/06/09 06:00:17;;;;;;;15.88;13.38;;;19.60;99.90;;;;;;5075029;28;20029;-83
2021/06/09 06:02:44;;;;;;;15.27;13.45;;;19.80;99.90;;;;;;5058299;28;20111;-84
2021/06/09 06:05:11;;;;;;;14.35;12.77;;;19.90;99.90;;;;;;5076595;28;20036;-85
2021/06/09 06:07:38;;;;;;;15.43;13.73;;;20.00;99.90;;;;;;5060367;28;20029;-84
2021/06/09 06:10:06;;;;;;;14.75;13.15;;;20.00;99.90;;;;;;5071245;28;20058;-85
2021/06/09 06:12:34;;;;;;;15.68;14.07;;;20.10;99.90;;;;;;5061142;28;20020;-85
2021/06/09 06:15:04;;;;;;;16.00;14.25;;;20.20;99.90;;;;;;5062983;28;20039;-84
2021/06/09 06:17:30;;;;;;;17.77;15.95;;;20.20;99.90;;;;;;5075423;28;20476;-85
2021/06/09 06:20:03;;;;;;;18.23;16.38;;;20.40;99.90;;;;;;5057198;28;20044;-84
2021/06/09 06:22:30;;;;;;;17.75;15.88;;;20.40;99.90;;;;;;5053525;28;20056;-85
2021/06/09 06:25:02;;;;;;;15.70;14.05;;;20.50;99.90;;;;;;5073649;28;20094;-84
2021/06/09 06:27:30;;;;;;;16.48;14.35;;;20.60;99.90;;;;;;5074432;28;20128;-85
2021/06/09 06:30:02;;;;;;;16.50;14.73;;;20.60;99.90;;;;;;5056677;28;20032;-86
2021/06/09 06:32:28;;;;;;;17.23;15.25;;;20.70;99.90;;;;;;5056338;28;20025;-83
2021/06/09 06:34:58;;;;;;;17.23;15.43;;;20.70;99.90;;;;;;5055228;28;20071;-85
2021/06/09 06:37:28;;;;;;;15.00;13.32;;;20.80;99.90;;;;;;5073654;28;20472;-83
2021/06/09 06:39:58;;;;;;;16.85;15.10;;;20.70;99.90;;;;;;5056470;28;20048;-86
2021/06/09 06:42:24;;;;;;;22.17;18.17;;;20.80;99.90;;;;;;5055837;28;20134;-83
2021/06/09 06:44:51;;;;;;;19.27;16.35;;;20.80;99.90;;;;;;5074249;28;20048;-84
2021/06/09 06:47:26;;;;;;;18.52;16.33;;;20.80;99.90;;;;;;5074291;28;20040;-83
2021/06/09 06:49:55;;;;;;;21.85;18.17;;;20.90;99.90;;;;;;5056777;28;20055;-83
2021/06/09 06:52:44;;;;;;;21.30;16.58;;;20.90;99.90;;;;;;5050001;28;20040;-85
2021/06/09 06:55:11;;;;;;;19.40;15.88;;;20.90;99.90;;;;;;5053860;28;20085;-83
2021/06/09 06:57:38;;;;;;;17.65;15.82;;;20.90;99.90;;;;;;5054607;28;20039;-84
2021/06/09 07:00:11;;;;;;;18.48;16.55;;;21.00;99.90;;;;;;5055739;28;20128;-84
2021/06/09 07:02:40;;;;;;;19.73;17.63;;;21.10;99.90;;;;;;5054228;28;20029;-83
2021/06/09 07:05:14;;;;;;;18.25;16.38;;;21.20;99.90;;;;;;5055562;28;20029;-84
2021/06/09 07:07:42;;;;;;;17.75;15.55;;;21.20;99.90;;;;;;5055924;28;20071;-84
2021/06/09 07:10:18;;;;;;;20.02;16.67;;;21.30;99.90;;;;;;5056396;28;20037;-84
2021/06/09 07:12:48;;;;;;;15.13;13.52;;;21.40;99.90;;;;;;5089443;28;20472;-80
2021/06/09 07:15:45;;;;;;;;;;;;;;;;;;;;;
2021/06/09 07:18:11;;;;;;;18.23;16.42;;;21.60;99.90;;;;;;5065447;28;20028;-84
2021/06/09 07:20:39;;;;;;;16.42;14.60;;;21.80;99.90;;;;;;5065978;28;20108;-84
2021/06/09 07:23:10;;;;;;;15.13;13.60;;;21.80;99.90;;;;;;5073024;28;20025;-83
2021/06/09 07:25:46;;;;;;;20.20;18.10;;;22.00;99.90;;;;;;5073325;28;20384;-84
2021/06/09 07:28:16;;;;;;;18.15;16.23;;;22.10;99.90;;;;;;5054680;28;20186;-83
2021/06/09 07:30:45;;;;;;;20.08;17.95;;;22.20;99.90;;;;;;5072134;28;20032;-84
2021/06/09 07:33:10;;;;;;;18.98;17.08;;;22.40;99.90;;;;;;5047043;28;20101;-82
2021/06/09 07:35:36;;;;;;;22.70;20.30;;;22.40;99.90;;;;;;5057518;28;20028;-82
2021/06/09 07:38:09;;;;;;;16.15;14.30;;;22.50;99.90;;;;;;5055514;28;20101;-85
2021/06/09 07:40:40;;;;;;;15.55;13.45;;;22.50;99.90;;;;;;5055975;28;20023;-84
2021/06/09 07:43:21;;;;;;;15.95;14.32;;;22.60;99.90;;;;;;5059570;28;20035;-84
2021/06/09 07:45:50;;;;;;;16.88;15.20;;;22.70;99.90;;;;;;5055288;28;20029;-85
2021/06/09 07:48:17;;;;;;;21.10;19.00;;;22.70;99.90;;;;;;5055303;28;20464;-84
2021/06/09 07:50:56;;;;;;;14.88;13.30;;;22.70;99.90;;;;;;5054744;28;20024;-82
2021/06/09 07:53:26;;;;;;;19.50;17.50;;;22.80;99.90;;;;;;5054434;28;20534;-83
2021/06/09 07:55:52;;;;;;;14.27;12.82;;;22.90;99.90;;;;;;5069393;28;20317;-84
2021/06/09 07:58:32;;;;;;;16.48;14.90;;;22.90;99.90;;;;;;5067808;28;20041;-83
2021/06/09 08:01:00;;;;;;;16.45;14.77;;;23.00;99.90;;;;;;5056204;28;20112;-85
2021/06/09 08:03:28;;;;;;;15.88;14.18;;;23.00;99.90;;;;;;5071852;28;20494;-85
2021/06/09 08:05:58;;;;;;;15.13;13.52;;;23.00;99.90;;;;;;5073166;28;20033;-83
2021/06/09 08:08:25;;;;;;;16.33;14.70;;;23.00;99.90;;;;;;5063236;28;20029;-83
2021/06/09 08:10:51;;;;;;;21.52;19.25;;;23.20;99.90;;;;;;5056891;28;20067;-81
2021/06/09 08:13:17;;;;;;;20.80;18.63;;;23.20;99.90;;;;;;5062026;28;20033;-82
2021/06/09 08:15:43;;;;;;;18.75;16.70;;;23.20;99.70;;;;;;5053936;28;20033;-83
2021/06/09 08:18:13;;;;;;;21.67;19.60;;;23.30;99.70;;;;;;5054231;28;20073;-84
2021/06/09 08:21:07;;;;;;;17.08;15.38;;;23.30;99.40;;;;;;5072185;28;20016;-83
2021/06/09 08:23:34;;;;;;;16.73;14.93;;;23.40;99.50;;;;;;5049225;28;20077;-82
2021/06/09 08:26:01;;;;;;;16.90;15.02;;;23.50;99.40;;;;;;5071018;28;20032;-83
2021/06/09 08:28:34;;;;;;;15.18;13.68;;;23.60;99.40;;;;;;5072020;28;20044;-83
2021/06/09 08:31:03;;;;;;;18.70;16.80;;;23.70;99.30;;;;;;5043949;28;20480;-84
2021/06/09 08:33:29;;;;;;;17.08;14.40;;;23.70;98.30;;;;;;5071729;28;20449;-84
2021/06/09 08:35:58;;;;;;;14.15;12.57;;;23.70;97.90;;;;;;5053828;28;20048;-84
2021/06/09 08:38:28;;;;;;;12.88;11.32;;;23.80;98.00;;;;;;5053904;28;20519;-83
2021/06/09 08:40:56;;;;;;;11.00;9.88;;;23.90;97.70;;;;;;5054915;28;20486;-83
2021/06/09 08:43:22;;;;;;;10.85;9.75;;;23.90;97.70;;;;;;5054177;28;20060;-82
2021/06/09 08:45:49;;;;;;;11.65;10.55;;;24.00;97.70;;;;;;5068764;28;20086;-83
2021/06/09 08:48:47;;;;;;;10.88;9.77;;;24.10;97.40;;;;;;5072590;28;20452;-84
2021/06/09 08:51:17;;;;;;;9.73;8.73;;;24.20;97.30;;;;;;5071386;28;20066;-83
2021/06/09 08:53:52;;;;;;;10.43;9.43;;;24.40;97.20;;;;;;5071369;28;20056;-83
2021/06/09 08:56:20;;;;;;;9.85;8.85;;;24.50;96.70;;;;;;5054414;28;20036;-82
2021/06/09 08:58:50;;;;;;;10.63;9.63;;;24.50;96.70;;;;;;5065276;28;20108;-82
2021/06/09 09:01:19;;;;;;;13.40;11.00;;;24.60;96.60;;;;;;5084724;28;20032;-82
2021/06/09 09:03:47;;;;;;;13.20;11.80;;;24.80;96.50;;;;;;5072563;28;20111;-83
2021/06/09 09:06:25;;;;;;;19.42;11.88;;;24.80;96.40;;;;;;5071225;28;20072;-83
2021/06/09 09:08:56;;;;;;;15.65;12.90;;;24.90;96.40;;;;;;5072465;28;20461;-83
2021/06/09 09:11:22;;;;;;;15.20;12.88;;;25.10;96.20;;;;;;5054370;28;20024;-84
2021/06/09 09:13:54;;;;;;;11.90;10.57;;;25.10;96.00;;;;;;5071561;28;20048;-84
2021/06/09 09:16:20;;;;;;;14.15;12.65;;;25.30;96.00;;;;;;5066663;28;20056;-83
2021/06/09 09:21:38;;;;;;;11.10;8.93;;;25.50;95.50;;;;;;5072098;28;20032;-83
2021/06/09 09:24:09;;;;;;;13.05;11.75;;;25.70;95.70;;;;;;5072703;28;20079;-82
2021/06/09 09:26:37;;;;;;;11.32;10.13;;;25.80;95.50;;;;;;5058002;28;20039;-84
2021/06/09 09:29:20;;;;;;;10.93;9.82;;;25.90;95.50;;;;;;5058222;28;20063;-83
2021/06/09 09:32:07;;;;;;;14.68;13.13;;;26.10;95.40;;;;;;5072250;28;20104;-83
2021/06/09 09:34:55;;;;;;;11.23;10.10;;;26.70;94.00;;;;;;5054148;28;20480;-84
2021/06/09 09:37:26;;;;;;;11.70;10.43;;;27.40;93.50;;;;;;5059263;28;20403;-83
2021/06/09 09:40:31;;;;;;;9.63;8.73;;;28.20;93.00;;;;;;5057490;28;20033;-81
2021/06/09 09:43:02;;;;;;;8.38;7.55;;;29.00;92.30;;;;;;5056842;28;20082;-82
2021/06/09 09:45:30;;;;;;;9.27;7.47;;;29.60;91.60;;;;;;5075684;28;20029;-82
2021/06/09 09:48:19;;;;;;;9.90;8.90;;;30.10;91.00;;;;;;5056872;28;20371;-83
2021/06/09 09:50:52;;;;;;;9.98;8.80;;;30.70;89.40;;;;;;5074963;28;20055;-83
2021/06/09 09:53:21;;;;;;;10.00;8.02;;;30.80;88.10;;;;;;5056941;28;20537;-83
2021/06/09 09:55:56;;;;;;;8.38;7.57;;;30.90;87.20;;;;;;5068013;28;20037;-85
2021/06/09 09:58:23;;;;;;;7.85;6.78;;;31.20;86.20;;;;;;5056650;28;20043;-85
2021/06/09 10:00:49;;;;;;;8.60;7.50;;;31.60;85.90;;;;;;5074291;28;20036;-84
2021/06/09 10:03:18;;;;;;;7.93;7.13;;;31.80;84.00;;;;;;5060008;28;20095;-84
2021/06/09 10:05:50;;;;;;;7.38;6.65;;;31.90;82.80;;;;;;5062311;28;20043;-84
2021/06/09 10:08:16;;;;;;;6.82;5.78;;;32.10;82.50;;;;;;5065040;28;20518;-83
2021/06/09 10:10:42;;;;;;;7.28;6.50;;;32.60;82.10;;;;;;5083274;28;20029;-84
2021/06/09 10:13:17;;;;;;;9.23;7.47;;;33.00;79.30;;;;;;5063196;28;20872;-83
2021/06/09 10:15:49;;;;;;;8.35;6.03;;;33.10;76.40;;;;;;5072753;28;20086;-83
2021/06/09 10:18:33;;;;;;;9.68;6.90;;;33.10;75.90;;;;;;5063010;28;20079;-86
2021/06/09 10:21:11;;;;;;;6.53;5.80;;;32.80;71.80;;;;;;5052371;28;20106;-84
2021/06/09 10:23:42;;;;;;;5.15;4.20;;;32.80;72.30;;;;;;5073426;28;20516;-83
2021/06/09 10:26:14;;;;;;;6.70;5.45;;;33.10;72.20;;;;;;5052683;28;20033;-83
2021/06/09 10:29:01;;;;;;;5.15;4.53;;;33.50;72.00;;;;;;5060719;28;20186;-82
2021/06/09 10:31:28;;;;;;;6.93;4.50;;;33.90;70.40;;;;;;5071950;28;20029;-85
2021/06/09 10:33:55;;;;;;;8.02;6.97;;;33.60;69.50;;;;;;5053956;28;20064;-83
2021/06/09 10:36:24;;;;;;;6.68;5.68;;;32.60;67.80;;;;;;5070815;28;20029;-83
2021/06/09 10:38:51;;;;;;;6.72;5.30;;;31.60;69.50;;;;;;5054300;28;20037;-81
2021/06/09 10:41:19;;;;;;;5.80;5.00;;;31.50;69.70;;;;;;5057699;28;20043;-83
2021/06/09 10:43:49;;;;;;;7.05;5.25;;;32.00;69.60;;;;;;5074105;28;20571;-79
2021/06/09 10:46:25;;;;;;;5.28;4.28;;;32.40;68.60;;;;;;5084063;28;20012;-80
2021/06/09 10:48:55;;;;;;;6.75;5.18;;;32.90;67.40;;;;;;5069146;28;20106;-81
2021/06/09 10:51:22;;;;;;;7.03;6.30;;;33.20;65.30;;;;;;5055285;28;20106;-81
2021/06/09 10:53:52;;;;;;;7.32;6.13;;;33.30;63.70;;;;;;5073597;28;20485;-81
2021/06/09 10:56:23;;;;;;;6.90;6.20;;;33.10;63.60;;;;;;5069204;28;20082;-81
2021/06/09 10:58:50;;;;;;;7.70;6.07;;;33.10;63.80;;;;;;5055551;28;20468;-81
2021/06/09 11:01:24;;;;;;;7.65;6.28;;;33.20;64.40;;;;;;5056595;28;20472;-81
2021/06/09 11:03:54;;;;;;;6.10;5.50;;;33.00;64.30;;;;;;5056656;28;20041;-82
2021/06/09 11:06:38;;;;;;;7.22;6.30;;;32.40;65.00;;;;;;5051185;28;20372;-81
2021/06/09 11:09:26;;;;;;;7.68;6.88;;;31.60;65.70;;;;;;5045215;28;20039;-82
2021/06/09 11:12:37;;;;;;;6.60;5.38;;;31.40;65.10;;;;;;5066466;28;20036;-82
2021/06/09 11:15:57;;;;;;;;;;;;;;;;;;;;;
2021/06/09 11:18:24;;;;;;;5.05;4.55;;;32.40;66.10;;;;;;5037675;28;20039;-84
2021/06/09 11:20:59;;;;;;;6.35;5.45;;;32.90;65.10;;;;;;5053128;28;20424;-83
2021/06/09 11:23:29;;;;;;;5.53;4.68;;;32.50;64.50;;;;;;5050483;28;20033;-83
2021/06/09 11:26:00;;;;;;;6.57;5.30;;;31.60;65.40;;;;;;5051028;28;20040;-84
2021/06/09 11:28:37;;;;;;;5.82;4.95;;;31.30;66.30;;;;;;5069729;28;20041;-83
2021/06/09 11:31:34;;;;;;;6.05;5.00;;;32.00;66.00;;;;;;5047505;28;20033;-83
2021/06/09 11:34:04;;;;;;;6.28;4.88;;;32.90;64.30;;;;;;5045243;28;20040;-84
2021/06/09 11:36:42;;;;;;;5.53;4.85;;;33.40;63.20;;;;;;5050773;28;20035;-84
2021/06/09 11:39:21;;;;;;;5.72;4.70;;;33.50;62.40;;;;;;5032746;28;20035;-83
2021/06/09 11:41:51;;;;;;;6.60;5.80;;;33.80;62.50;;;;;;5066824;28;20027;-83
2021/06/09 11:44:45;;;;;;;5.25;4.57;;;34.10;61.40;;;;;;5067069;28;20690;-83
2021/06/09 11:47:21;;;;;;;7.38;5.30;;;34.10;61.30;;;;;;5048981;28;20029;-84
2021/06/09 11:49:49;;;;;;;6.72;5.18;;;34.00;61.40;;;;;;5050660;28;20021;-83
2021/06/09 11:52:17;;;;;;;5.50;4.90;;;33.90;60.50;;;;;;5068452;28;20037;-83
2021/06/09 11:54:43;;;;;;;8.43;5.47;;;33.70;61.40;;;;;;5050192;28;20090;-84
2021/06/09 11:57:26;;;;;;;5.00;4.28;;;33.80;61.20;;;;;;5050436;28;20139;-83
2021/06/09 11:59:51;;;;;;;;;;;33.90;60.90;;;;;;5051281;28;20112;-84
2021/06/09 12:02:26;;;;;;;6.15;3.80;;;33.90;60.80;;;;;;5051427;28;20326;-82
2021/06/09 12:04:55;;;;;;;6.80;4.88;;;34.20;61.40;;;;;;5067528;28;20082;-83
2021/06/09 12:07:43;;;;;;;5.28;3.38;;;34.40;59.90;;;;;;5072980;28;20040;-83
2021/06/09 12:10:11;;;;;;;5.32;3.65;;;34.20;59.60;;;;;;5080351;28;20036;-82
2021/06/09 12:12:41;;;;;;;3.38;2.60;;;34.10;59.60;;;;;;5065168;28;20085;-83
2021/06/09 12:15:09;;;;;;;4.88;3.20;;;34.20;60.10;;;;;;5033832;28;20044;-83
2021/06/09 12:17:45;;;;;;;3.75;3.30;;;34.60;59.70;;;;;;5066911;28;20032;-82
2021/06/09 12:20:21;;;;;;;4.15;3.42;;;35.10;59.70;;;;;;5065419;28;20123;-83
2021/06/09 12:22:55;;;;;;;3.45;2.85;;;35.40;59.00;;;;;;5066356;28;20074;-83
2021/06/09 12:25:27;;;;;;;3.30;3.00;;;35.80;58.90;;;;;;5048643;28;20033;-82
2021/06/09 12:27:59;;;;;;;3.97;3.20;;;35.80;57.90;;;;;;5043303;28;20057;-83
2021/06/09 12:30:25;;;;;;;4.82;3.05;;;35.50;57.60;;;;;;5046331;28;20052;-82
2021/06/09 12:32:58;;;;;;;4.22;2.97;;;35.50;57.90;;;;;;5051225;28;20055;-81
2021/06/09 12:35:29;;;;;;;4.72;3.45;;;35.60;57.40;;;;;;5070469;28;20048;-80
2021/06/09 12:45:24;;;;;;;;;;;;;;;;;;;;;
2021/06/09 12:48:30;;;;;;;4.53;3.10;;;35.60;55.80;;;;;;5048498;28;20459;-81
2021/06/09 12:58:53;;;;;;;;;;;;;;;;;;;;;
2021/06/09 13:01:43;;;;;;;5.60;3.08;;;36.30;56.00;;;;;;4971735;28;20034;-81
2021/06/09 13:04:47;;;;;;;6.63;4.07;;;36.50;55.70;;;;;;4981658;28;20485;-81
2021/06/09 13:08:15;;;;;;;4.80;3.65;;;36.10;54.00;;;;;;5048202;28;20512;-80
2021/06/09 13:15:07;;;;;;;;;;;;;;;;;;;;;
2021/06/09 13:18:00;;;;;;;5.85;4.38;;;36.40;54.50;;;;;;4918180;28;20038;-80
2021/06/09 13:21:10;;;;;;;;;;;;;;;;;;;;;
2021/06/09 13:24:20;;;;;;;5.25;4.25;;;35.80;54.20;;;;;;5035253;28;20043;-82
2021/06/09 13:26:50;;;;;;;6.78;4.05;;;36.10;54.30;;;;;;5043427;28;20045;-82
2021/06/09 13:29:18;;;;;;;5.65;4.30;;;36.40;54.50;;;;;;5049824;28;20044;-81
2021/06/09 13:31:45;;;;;;;6.82;3.85;;;36.60;53.80;;;;;;5050486;28;20132;-81
2021/06/09 13:34:13;;;;;;;5.07;4.05;;;36.70;53.00;;;;;;5067139;28;20442;-82
2021/06/09 13:36:41;;;;;;;5.30;3.97;;;36.80;53.00;;;;;;5048934;28;20179;-82